sensor_id;sensor_type;location;lat;lon;timestamp;temperature;humidity
42187;DHT22;27858;51.414;0.018;2024-02-23T00:02:27;4.60;99.90
42187;DHT22;27858;51.414;0.018;2024-02-23T00:04:54;4.60;99.90
42187;DHT22;27858;51.414;0.018;2024-02-23T00:07:21;4.60;99.90
42187;DHT22;27858;51.414;0.018;2024-02-23T00:09:47;4.50;99.90
42187;DHT22;27858;51.414;0.018;2024-02-23T00:12:14;4.60;99.90
42187;DHT22;27858;51.414;0.018;2024-02-23T00:14:41;4.60;99.90
42187;DHT22;27858;51.414;0.018;2024-02-23T00:17:08;4.60;99.90
42187;DHT22;27858;51.414;0.018;2024-02-23T00:19:35;4.60;99.90
42187;DHT22;27858;51.414;0.018;2024-02-23T00:22:02;4.70;99.90
42187;DHT22;27858;51.414;0.018;2024-02-23T00:24:31;4.60;99.90
42187;DHT22;27858;51.414;0.018;2024-02-23T00:26:57;4.60;99.90
42187;DHT22;27858;51.414;0.018;2024-02-23T00:29:24;4.60;99.90
42187;DHT22;27858;51.414;0.018;2024-02-23T00:31:51;4.60;99.90
42187;DHT22;27858;51.414;0.018;2024-02-23T00:34:18;4.60;99.90
42187;DHT22;27858;51.414;0.018;2024-02-23T00:36:45;4.60;99.90
42187;DHT22;27858;51.414;0.018;2024-02-23T00:39:12;4.60;99.90
42187;DHT22;27858;51.414;0.018;2024-02-23T00:41:38;4.60;99.90
42187;DHT22;27858;51.414;0.018;2024-02-23T00:44:05;4.70;99.90
42187;DHT22;27858;51.414;0.018;2024-02-23T00:46:42;4.60;99.90
42187;DHT22;27858;51.414;0.018;2024-02-23T00:49:08;4.70;99.90
42187;DHT22;27858;51.414;0.018;2024-02-23T00:51:39;4.70;99.90
42187;DHT22;27858;51.414;0.018;2024-02-23T00:54:07;4.70;99.90
42187;DHT22;27858;51.414;0.018;2024-02-23T00:56:38;4.70;99.90
42187;DHT22;27858;51.414;0.018;2024-02-23T00:59:17;4.70;99.90
42187;DHT22;27858;51.414;0.018;2024-02-23T01:01:43;4.70;99.90
42187;DHT22;27858;51.414;0.018;2024-02-23T01:04:10;4.70;99.90
42187;DHT22;27858;51.414;0.018;2024-02-23T01:06:37;4.70;99.90
42187;DHT22;27858;51.414;0.018;2024-02-23T01:09:04;4.70;99.90
42187;DHT22;27858;51.414;0.018;2024-02-23T01:11:31;4.60;99.90
42187;DHT22;27858;51.414;0.018;2024-02-23T01:13:58;4.70;99.90
42187;DHT22;27858;51.414;0.018;2024-02-23T01:16:25;4.70;99.90
42187;DHT22;27858;51.414;0.018;2024-02-23T01:18:52;4.70;99.90
42187;DHT22;27858;51.414;0.018;2024-02-23T01:21:19;4.70;99.90
42187;DHT22;27858;51.414;0.018;2024-02-23T01:23:45;4.70;99.90
42187;DHT22;27858;51.414;0.018;2024-02-23T01:26:12;4.80;99.90
42187;DHT22;27858;51.414;0.018;2024-02-23T01:28:40;4.80;99.90
42187;DHT22;27858;51.414;0.018;2024-02-23T01:31:09;4.70;99.90
42187;DHT22;27858;51.414;0.018;2024-02-23T01:33:40;4.80;99.90
42187;DHT22;27858;51.414;0.018;2024-02-23T01:36:07;4.80;99.90
42187;DHT22;27858;51.414;0.018;2024-02-23T01:38:54;4.80;99.90
42187;DHT22;27858;51.414;0.018;2024-02-23T01:41:21;4.80;99.90
42187;DHT22;27858;51.414;0.018;2024-02-23T01:43:48;4.80;99.90
42187;DHT22;27858;51.414;0.018;2024-02-23T01:46:16;4.90;99.90
42187;DHT22;27858;51.414;0.018;2024-02-23T01:48:45;4.80;99.90
42187;DHT22;27858;51.414;0.018;2024-02-23T01:51:13;4.90;99.90
42187;DHT22;27858;51.414;0.018;2024-02-23T01:53:40;5.00;99.90
42187;DHT22;27858;51.414;0.018;2024-02-23T01:56:07;5.00;99.90
42187;DHT22;27858;51.414;0.018;2024-02-23T01:58:35;5.00;99.90
42187;DHT22;27858;51.414;0.018;2024-02-23T02:01:03;5.00;99.90
42187;DHT22;27858;51.414;0.018;2024-02-23T02:03:31;5.00;99.90
42187;DHT22;27858;51.414;0.018;2024-02-23T02:05:58;5.10;99.90
42187;DHT22;27858;51.414;0.018;2024-02-23T02:08:26;5.10;99.90
42187;DHT22;27858;51.414;0.018;2024-02-23T02:10:53;5.10;99.90
42187;DHT22;27858;51.414;0.018;2024-02-23T02:13:20;5.20;99.90
42187;DHT22;27858;51.414;0.018;2024-02-23T02:15:47;5.20;99.90
42187;DHT22;27858;51.414;0.018;2024-02-23T02:18:13;5.20;99.90
42187;DHT22;27858;51.414;0.018;2024-02-23T02:20:58;5.20;99.90
42187;DHT22;27858;51.414;0.018;2024-02-23T02:23:25;5.20;99.90
42187;DHT22;27858;51.414;0.018;2024-02-23T02:25:56;5.20;99.90
42187;DHT22;27858;51.414;0.018;2024-02-23T02:28:24;5.20;99.90
42187;DHT22;27858;51.414;0.018;2024-02-23T02:30:52;5.30;99.90
42187;DHT22;27858;51.414;0.018;2024-02-23T02:33:24;5.20;99.90
42187;DHT22;27858;51.414;0.018;2024-02-23T02:35:51;5.20;99.90
42187;DHT22;27858;51.414;0.018;2024-02-23T02:38:17;5.20;99.90
42187;DHT22;27858;51.414;0.018;2024-02-23T02:40:44;5.20;99.90
42187;DHT22;27858;51.414;0.018;2024-02-23T02:43:11;5.20;99.90
42187;DHT22;27858;51.414;0.018;2024-02-23T02:45:38;5.20;99.90
42187;DHT22;27858;51.414;0.018;2024-02-23T02:48:05;5.30;99.90
42187;DHT22;27858;51.414;0.018;2024-02-23T02:50:32;5.30;99.90
42187;DHT22;27858;51.414;0.018;2024-02-23T02:52:59;5.30;99.90
42187;DHT22;27858;51.414;0.018;2024-02-23T02:55:26;5.30;99.90
42187;DHT22;27858;51.414;0.018;2024-02-23T02:57:53;5.30;99.90
42187;DHT22;27858;51.414;0.018;2024-02-23T03:00:19;5.30;99.90
42187;DHT22;27858;51.414;0.018;2024-02-23T03:02:46;5.50;99.90
42187;DHT22;27858;51.414;0.018;2024-02-23T03:05:13;5.50;99.90
42187;DHT22;27858;51.414;0.018;2024-02-23T03:07:40;5.60;99.90
42187;DHT22;27858;51.414;0.018;2024-02-23T03:10:07;5.70;99.90
42187;DHT22;27858;51.414;0.018;2024-02-23T03:12:34;5.70;99.90
42187;DHT22;27858;51.414;0.018;2024-02-23T03:15:01;5.70;99.90
42187;DHT22;27858;51.414;0.018;2024-02-23T03:17:29;5.70;99.90
42187;DHT22;27858;51.414;0.018;2024-02-23T03:19:56;5.70;99.90
42187;DHT22;27858;51.414;0.018;2024-02-23T03:22:24;5.70;99.90
42187;DHT22;27858;51.414;0.018;2024-02-23T03:24:51;5.70;99.90
42187;DHT22;27858;51.414;0.018;2024-02-23T03:27:19;5.70;99.90
42187;DHT22;27858;51.414;0.018;2024-02-23T03:29:46;5.70;99.90
42187;DHT22;27858;51.414;0.018;2024-02-23T03:32:13;5.70;99.90
42187;DHT22;27858;51.414;0.018;2024-02-23T03:34:40;5.70;99.90
42187;DHT22;27858;51.414;0.018;2024-02-23T03:37:07;5.70;99.90
42187;DHT22;27858;51.414;0.018;2024-02-23T03:39:33;5.70;99.90
42187;DHT22;27858;51.414;0.018;2024-02-23T03:42:00;5.60;99.90
42187;DHT22;27858;51.414;0.018;2024-02-23T03:44:27;5.70;99.90
42187;DHT22;27858;51.414;0.018;2024-02-23T03:46:54;5.60;99.90
42187;DHT22;27858;51.414;0.018;2024-02-23T03:49:21;5.60;99.90
42187;DHT22;27858;51.414;0.018;2024-02-23T03:51:48;5.60;99.90
42187;DHT22;27858;51.414;0.018;2024-02-23T03:54:15;5.70;99.90
42187;DHT22;27858;51.414;0.018;2024-02-23T03:56:42;5.70;99.90
42187;DHT22;27858;51.414;0.018;2024-02-23T03:59:09;5.60;99.90
42187;DHT22;27858;51.414;0.018;2024-02-23T04:01:39;5.50;99.90
42187;DHT22;27858;51.414;0.018;2024-02-23T04:04:06;5.50;99.90
42187;DHT22;27858;51.414;0.018;2024-02-23T04:06:34;5.50;99.90
42187;DHT22;27858;51.414;0.018;2024-02-23T04:09:01;5.50;99.90
42187;DHT22;27858;51.414;0.018;2024-02-23T04:11:27;5.50;99.90
42187;DHT22;27858;51.414;0.018;2024-02-23T04:13:54;5.50;99.90
42187;DHT22;27858;51.414;0.018;2024-02-23T04:16:26;5.60;99.90
42187;DHT22;27858;51.414;0.018;2024-02-23T04:18:55;5.60;99.90
42187;DHT22;27858;51.414;0.018;2024-02-23T04:21:24;5.60;99.90
42187;DHT22;27858;51.414;0.018;2024-02-23T04:23:52;5.60;99.90
42187;DHT22;27858;51.414;0.018;2024-02-23T04:26:19;5.60;99.90
42187;DHT22;27858;51.414;0.018;2024-02-23T04:28:49;5.70;99.90
42187;DHT22;27858;51.414;0.018;2024-02-23T04:31:16;5.70;99.90
42187;DHT22;27858;51.414;0.018;2024-02-23T04:33:53;5.80;99.90
42187;DHT22;27858;51.414;0.018;2024-02-23T04:36:40;5.80;99.90
42187;DHT22;27858;51.414;0.018;2024-02-23T04:39:27;5.90;99.90
42187;DHT22;27858;51.414;0.018;2024-02-23T04:41:55;5.90;99.90
42187;DHT22;27858;51.414;0.018;2024-02-23T04:44:22;6.00;99.90
42187;DHT22;27858;51.414;0.018;2024-02-23T04:46:49;6.00;99.90
42187;DHT22;27858;51.414;0.018;2024-02-23T04:49:15;6.00;99.90
42187;DHT22;27858;51.414;0.018;2024-02-23T04:51:45;6.10;99.90
42187;DHT22;27858;51.414;0.018;2024-02-23T04:54:14;6.10;99.90
42187;DHT22;27858;51.414;0.018;2024-02-23T04:56:44;6.10;99.90
42187;DHT22;27858;51.414;0.018;2024-02-23T04:59:11;6.10;99.90
42187;DHT22;27858;51.414;0.018;2024-02-23T05:01:38;6.20;99.90
42187;DHT22;27858;51.414;0.018;2024-02-23T05:04:05;6.20;99.90
42187;DHT22;27858;51.414;0.018;2024-02-23T05:06:33;6.20;99.90
42187;DHT22;27858;51.414;0.018;2024-02-23T05:09:13;6.20;99.90
42187;DHT22;27858;51.414;0.018;2024-02-23T05:11:54;6.20;99.90
42187;DHT22;27858;51.414;0.018;2024-02-23T05:14:21;6.20;99.90
42187;DHT22;27858;51.414;0.018;2024-02-23T05:16:48;6.20;99.90
42187;DHT22;27858;51.414;0.018;2024-02-23T05:19:14;6.20;99.90
42187;DHT22;27858;51.414;0.018;2024-02-23T05:21:44;6.20;99.90
42187;DHT22;27858;51.414;0.018;2024-02-23T05:24:12;6.20;99.90
42187;DHT22;27858;51.414;0.018;2024-02-23T05:26:40;6.20;99.90
42187;DHT22;27858;51.414;0.018;2024-02-23T05:29:09;6.20;99.90
42187;DHT22;27858;51.414;0.018;2024-02-23T05:31:46;6.20;99.90
42187;DHT22;27858;51.414;0.018;2024-02-23T05:34:14;6.10;99.90
42187;DHT22;27858;51.414;0.018;2024-02-23T05:36:42;6.10;99.90
42187;DHT22;27858;51.414;0.018;2024-02-23T05:39:10;6.10;99.90
42187;DHT22;27858;51.414;0.018;2024-02-23T05:41:37;6.10;99.90
42187;DHT22;27858;51.414;0.018;2024-02-23T05:44:04;6.10;99.90
42187;DHT22;27858;51.414;0.018;2024-02-23T05:46:35;6.10;99.90
42187;DHT22;27858;51.414;0.018;2024-02-23T05:49:02;6.00;99.90
42187;DHT22;27858;51.414;0.018;2024-02-23T05:51:31;6.00;99.90
42187;DHT22;27858;51.414;0.018;2024-02-23T05:54:05;5.90;99.90
42187;DHT22;27858;51.414;0.018;2024-02-23T05:56:32;5.90;99.90
42187;DHT22;27858;51.414;0.018;2024-02-23T05:58:59;5.80;99.90
42187;DHT22;27858;51.414;0.018;2024-02-23T06:01:26;5.80;99.90
42187;DHT22;27858;51.414;0.018;2024-02-23T06:03:53;5.80;99.90
42187;DHT22;27858;51.414;0.018;2024-02-23T06:06:23;5.70;99.90
42187;DHT22;27858;51.414;0.018;2024-02-23T06:08:52;5.70;99.90
42187;DHT22;27858;51.414;0.018;2024-02-23T06:11:19;5.70;99.90
42187;DHT22;27858;51.414;0.018;2024-02-23T06:13:47;5.60;99.90
42187;DHT22;27858;51.414;0.018;2024-02-23T06:16:14;5.60;99.90
42187;DHT22;27858;51.414;0.018;2024-02-23T06:18:42;5.60;99.90
42187;DHT22;27858;51.414;0.018;2024-02-23T06:21:16;5.50;99.90
42187;DHT22;27858;51.414;0.018;2024-02-23T06:23:44;5.50;99.90
42187;DHT22;27858;51.414;0.018;2024-02-23T06:26:11;5.50;99.90
42187;DHT22;27858;51.414;0.018;2024-02-23T06:28:39;5.50;99.90
42187;DHT22;27858;51.414;0.018;2024-02-23T06:31:11;5.50;99.90
42187;DHT22;27858;51.414;0.018;2024-02-23T06:33:48;5.50;99.90
42187;DHT22;27858;51.414;0.018;2024-02-23T06:36:16;5.50;99.90
42187;DHT22;27858;51.414;0.018;2024-02-23T06:38:44;5.40;99.90
42187;DHT22;27858;51.414;0.018;2024-02-23T06:41:11;5.40;99.90
42187;DHT22;27858;51.414;0.018;2024-02-23T06:43:39;5.40;99.90
42187;DHT22;27858;51.414;0.018;2024-02-23T06:46:09;5.30;99.90
42187;DHT22;27858;51.414;0.018;2024-02-23T06:48:37;5.40;99.90
42187;DHT22;27858;51.414;0.018;2024-02-23T06:51:05;5.40;99.90
42187;DHT22;27858;51.414;0.018;2024-02-23T06:53:33;5.30;99.90
42187;DHT22;27858;51.414;0.018;2024-02-23T06:56:00;5.30;99.90
42187;DHT22;27858;51.414;0.018;2024-02-23T06:58:27;5.30;99.90
42187;DHT22;27858;51.414;0.018;2024-02-23T07:00:54;5.30;99.90
42187;DHT22;27858;51.414;0.018;2024-02-23T07:03:22;5.30;99.90
42187;DHT22;27858;51.414;0.018;2024-02-23T07:05:48;5.30;99.90
42187;DHT22;27858;51.414;0.018;2024-02-23T07:08:17;5.30;99.90
42187;DHT22;27858;51.414;0.018;2024-02-23T07:10:44;5.30;99.90
42187;DHT22;27858;51.414;0.018;2024-02-23T07:13:13;5.40;99.90
42187;DHT22;27858;51.414;0.018;2024-02-23T07:15:40;5.30;99.90
42187;DHT22;27858;51.414;0.018;2024-02-23T07:18:07;5.30;99.90
42187;DHT22;27858;51.414;0.018;2024-02-23T07:20:37;5.30;99.90
42187;DHT22;27858;51.414;0.018;2024-02-23T07:23:05;5.40;99.90
42187;DHT22;27858;51.414;0.018;2024-02-23T07:25:33;5.40;99.90
42187;DHT22;27858;51.414;0.018;2024-02-23T07:28:00;5.30;99.90
42187;DHT22;27858;51.414;0.018;2024-02-23T07:30:27;5.40;99.90
42187;DHT22;27858;51.414;0.018;2024-02-23T07:32:53;5.40;99.90
42187;DHT22;27858;51.414;0.018;2024-02-23T07:35:21;5.40;99.90
42187;DHT22;27858;51.414;0.018;2024-02-23T07:37:48;5.40;99.90
42187;DHT22;27858;51.414;0.018;2024-02-23T07:40:14;5.40;99.90
42187;DHT22;27858;51.414;0.018;2024-02-23T07:42:46;5.40;99.90
42187;DHT22;27858;51.414;0.018;2024-02-23T07:45:13;5.40;99.90
42187;DHT22;27858;51.414;0.018;2024-02-23T07:47:40;5.40;99.90
42187;DHT22;27858;51.414;0.018;2024-02-23T07:50:07;5.40;99.90
42187;DHT22;27858;51.414;0.018;2024-02-23T07:52:35;5.40;99.90
42187;DHT22;27858;51.414;0.018;2024-02-23T07:55:02;5.50;99.90
42187;DHT22;27858;51.414;0.018;2024-02-23T07:57:32;5.50;99.90
42187;DHT22;27858;51.414;0.018;2024-02-23T07:59:59;5.50;99.90
42187;DHT22;27858;51.414;0.018;2024-02-23T08:02:26;5.60;99.90
42187;DHT22;27858;51.414;0.018;2024-02-23T08:04:53;5.60;99.90
42187;DHT22;27858;51.414;0.018;2024-02-23T08:07:21;5.60;99.90
42187;DHT22;27858;51.414;0.018;2024-02-23T08:09:49;5.60;99.90
42187;DHT22;27858;51.414;0.018;2024-02-23T08:12:16;5.60;99.90
42187;DHT22;27858;51.414;0.018;2024-02-23T08:14:43;5.70;99.90
42187;DHT22;27858;51.414;0.018;2024-02-23T08:17:12;5.70;99.90
42187;DHT22;27858;51.414;0.018;2024-02-23T08:19:39;5.70;99.90
42187;DHT22;27858;51.414;0.018;2024-02-23T08:22:06;5.70;99.90
42187;DHT22;27858;51.414;0.018;2024-02-23T08:24:32;5.80;99.90
42187;DHT22;27858;51.414;0.018;2024-02-23T08:26:59;5.90;99.90
42187;DHT22;27858;51.414;0.018;2024-02-23T08:29:27;5.90;99.90
42187;DHT22;27858;51.414;0.018;2024-02-23T08:31:54;6.00;99.90
42187;DHT22;27858;51.414;0.018;2024-02-23T08:34:21;6.00;99.90
42187;DHT22;27858;51.414;0.018;2024-02-23T08:36:48;6.10;99.90
42187;DHT22;27858;51.414;0.018;2024-02-23T08:39:15;6.00;99.90
42187;DHT22;27858;51.414;0.018;2024-02-23T08:41:43;6.10;99.90
42187;DHT22;27858;51.414;0.018;2024-02-23T08:44:10;6.00;99.90
42187;DHT22;27858;51.414;0.018;2024-02-23T08:46:37;6.10;99.90
42187;DHT22;27858;51.414;0.018;2024-02-23T08:49:06;6.20;99.90
42187;DHT22;27858;51.414;0.018;2024-02-23T08:51:33;6.20;99.90
42187;DHT22;27858;51.414;0.018;2024-02-23T08:54:00;6.20;99.90
42187;DHT22;27858;51.414;0.018;2024-02-23T08:56:31;6.30;99.90
42187;DHT22;27858;51.414;0.018;2024-02-23T08:58:58;6.30;99.90
42187;DHT22;27858;51.414;0.018;2024-02-23T09:01:26;6.30;99.90
42187;DHT22;27858;51.414;0.018;2024-02-23T09:03:53;6.40;99.90
42187;DHT22;27858;51.414;0.018;2024-02-23T09:06:20;6.50;99.90
42187;DHT22;27858;51.414;0.018;2024-02-23T09:08:47;6.50;99.90
42187;DHT22;27858;51.414;0.018;2024-02-23T09:11:14;6.60;99.90
42187;DHT22;27858;51.414;0.018;2024-02-23T09:13:42;6.70;99.90
42187;DHT22;27858;51.414;0.018;2024-02-23T09:16:09;6.70;99.90
42187;DHT22;27858;51.414;0.018;2024-02-23T09:18:36;6.70;99.90
42187;DHT22;27858;51.414;0.018;2024-02-23T09:21:04;6.70;99.90
42187;DHT22;27858;51.414;0.018;2024-02-23T09:23:33;6.80;99.90
42187;DHT22;27858;51.414;0.018;2024-02-23T09:26:09;6.80;99.90
42187;DHT22;27858;51.414;0.018;2024-02-23T09:28:36;6.90;99.90
42187;DHT22;27858;51.414;0.018;2024-02-23T09:31:03;6.90;99.90
42187;DHT22;27858;51.414;0.018;2024-02-23T09:33:33;7.10;99.90
42187;DHT22;27858;51.414;0.018;2024-02-23T09:36:04;7.10;99.90
42187;DHT22;27858;51.414;0.018;2024-02-23T09:38:30;7.10;99.90
42187;DHT22;27858;51.414;0.018;2024-02-23T09:40:59;7.20;99.90
42187;DHT22;27858;51.414;0.018;2024-02-23T09:43:29;7.10;99.90
42187;DHT22;27858;51.414;0.018;2024-02-23T09:45:59;7.10;99.90
42187;DHT22;27858;51.414;0.018;2024-02-23T09:48:27;7.20;99.90
42187;DHT22;27858;51.414;0.018;2024-02-23T09:50:55;7.20;99.90
42187;DHT22;27858;51.414;0.018;2024-02-23T09:53:24;7.30;99.90
42187;DHT22;27858;51.414;0.018;2024-02-23T09:55:51;7.30;99.90
42187;DHT22;27858;51.414;0.018;2024-02-23T09:58:20;7.40;99.90
42187;DHT22;27858;51.414;0.018;2024-02-23T10:00:48;7.30;99.90
42187;DHT22;27858;51.414;0.018;2024-02-23T10:03:15;7.40;99.90
42187;DHT22;27858;51.414;0.018;2024-02-23T10:05:42;7.40;99.90
42187;DHT22;27858;51.414;0.018;2024-02-23T10:08:11;7.40;99.90
42187;DHT22;27858;51.414;0.018;2024-02-23T10:10:39;7.50;99.90
42187;DHT22;27858;51.414;0.018;2024-02-23T10:13:06;7.60;99.90
42187;DHT22;27858;51.414;0.018;2024-02-23T10:15:34;7.60;99.90
42187;DHT22;27858;51.414;0.018;2024-02-23T10:18:01;7.70;99.90
42187;DHT22;27858;51.414;0.018;2024-02-23T10:20:28;7.70;99.90
42187;DHT22;27858;51.414;0.018;2024-02-23T10:22:56;7.70;99.90
42187;DHT22;27858;51.414;0.018;2024-02-23T10:25:23;7.70;99.90
42187;DHT22;27858;51.414;0.018;2024-02-23T10:27:50;7.80;99.90
42187;DHT22;27858;51.414;0.018;2024-02-23T10:30:17;7.90;99.90
42187;DHT22;27858;51.414;0.018;2024-02-23T10:32:45;8.00;99.90
42187;DHT22;27858;51.414;0.018;2024-02-23T10:35:16;8.10;99.90
42187;DHT22;27858;51.414;0.018;2024-02-23T10:37:44;8.10;99.90
42187;DHT22;27858;51.414;0.018;2024-02-23T10:40:15;8.10;99.90
42187;DHT22;27858;51.414;0.018;2024-02-23T10:42:47;8.10;99.90
42187;DHT22;27858;51.414;0.018;2024-02-23T10:45:18;8.10;99.90
42187;DHT22;27858;51.414;0.018;2024-02-23T10:47:47;8.20;99.90
42187;DHT22;27858;51.414;0.018;2024-02-23T10:50:15;8.20;99.90
42187;DHT22;27858;51.414;0.018;2024-02-23T10:52:42;8.20;99.90
42187;DHT22;27858;51.414;0.018;2024-02-23T10:55:10;8.30;99.90
42187;DHT22;27858;51.414;0.018;2024-02-23T10:57:38;8.30;99.90
42187;DHT22;27858;51.414;0.018;2024-02-23T11:00:08;8.30;99.90
42187;DHT22;27858;51.414;0.018;2024-02-23T11:02:44;8.50;99.90
42187;DHT22;27858;51.414;0.018;2024-02-23T11:05:14;8.50;99.90
42187;DHT22;27858;51.414;0.018;2024-02-23T11:07:42;8.60;99.90
42187;DHT22;27858;51.414;0.018;2024-02-23T11:10:13;8.70;99.90
42187;DHT22;27858;51.414;0.018;2024-02-23T11:12:40;8.80;99.90
42187;DHT22;27858;51.414;0.018;2024-02-23T11:15:07;8.90;99.90
42187;DHT22;27858;51.414;0.018;2024-02-23T11:17:36;9.00;99.90
42187;DHT22;27858;51.414;0.018;2024-02-23T11:20:05;9.10;99.90
42187;DHT22;27858;51.414;0.018;2024-02-23T11:22:34;9.10;99.90
42187;DHT22;27858;51.414;0.018;2024-02-23T11:25:07;9.20;99.90
42187;DHT22;27858;51.414;0.018;2024-02-23T11:27:38;9.10;99.90
42187;DHT22;27858;51.414;0.018;2024-02-23T11:30:08;9.20;99.90
42187;DHT22;27858;51.414;0.018;2024-02-23T11:32:40;9.20;99.90
42187;DHT22;27858;51.414;0.018;2024-02-23T11:35:10;9.00;99.90
42187;DHT22;27858;51.414;0.018;2024-02-23T11:37:52;9.10;99.90
42187;DHT22;27858;51.414;0.018;2024-02-23T11:40:32;9.00;99.90
42187;DHT22;27858;51.414;0.018;2024-02-23T11:42:59;9.10;99.90
42187;DHT22;27858;51.414;0.018;2024-02-23T11:45:30;9.10;99.90
42187;DHT22;27858;51.414;0.018;2024-02-23T11:47:58;9.10;99.90
42187;DHT22;27858;51.414;0.018;2024-02-23T11:50:27;9.00;99.90
42187;DHT22;27858;51.414;0.018;2024-02-23T11:52:54;9.10;99.90
42187;DHT22;27858;51.414;0.018;2024-02-23T11:55:22;9.10;99.90
42187;DHT22;27858;51.414;0.018;2024-02-23T11:57:50;9.10;99.90
42187;DHT22;27858;51.414;0.018;2024-02-23T12:00:31;9.10;99.90
42187;DHT22;27858;51.414;0.018;2024-02-23T12:02:58;9.10;99.90
42187;DHT22;27858;51.414;0.018;2024-02-23T12:05:26;9.10;99.90
42187;DHT22;27858;51.414;0.018;2024-02-23T12:07:54;9.10;99.90
42187;DHT22;27858;51.414;0.018;2024-02-23T12:10:21;9.10;99.90
42187;DHT22;27858;51.414;0.018;2024-02-23T12:12:48;9.10;99.90
42187;DHT22;27858;51.414;0.018;2024-02-23T12:15:16;9.10;99.90
42187;DHT22;27858;51.414;0.018;2024-02-23T12:17:47;9.20;99.90
42187;DHT22;27858;51.414;0.018;2024-02-23T12:20:14;9.10;99.90
42187;DHT22;27858;51.414;0.018;2024-02-23T12:22:42;9.10;99.90
42187;DHT22;27858;51.414;0.018;2024-02-23T12:25:09;9.00;99.90
42187;DHT22;27858;51.414;0.018;2024-02-23T12:27:38;9.00;99.90
42187;DHT22;27858;51.414;0.018;2024-02-23T12:30:05;9.00;99.90
42187;DHT22;27858;51.414;0.018;2024-02-23T12:32:32;9.00;99.90
42187;DHT22;27858;51.414;0.018;2024-02-23T12:34:59;9.00;99.90
42187;DHT22;27858;51.414;0.018;2024-02-23T12:37:26;9.00;99.90
42187;DHT22;27858;51.414;0.018;2024-02-23T12:39:53;9.10;99.90
42187;DHT22;27858;51.414;0.018;2024-02-23T12:42:21;9.10;99.90
42187;DHT22;27858;51.414;0.018;2024-02-23T12:44:48;9.30;99.90
42187;DHT22;27858;51.414;0.018;2024-02-23T12:47:15;9.40;99.90
42187;DHT22;27858;51.414;0.018;2024-02-23T12:49:42;9.50;99.90
42187;DHT22;27858;51.414;0.018;2024-02-23T12:52:12;9.50;99.90
42187;DHT22;27858;51.414;0.018;2024-02-23T12:54:39;9.50;99.90
42187;DHT22;27858;51.414;0.018;2024-02-23T12:57:06;9.50;99.90
42187;DHT22;27858;51.414;0.018;2024-02-23T12:59:33;9.50;99.90
42187;DHT22;27858;51.414;0.018;2024-02-23T13:02:02;9.40;99.90
42187;DHT22;27858;51.414;0.018;2024-02-23T13:04:29;9.50;99.90
42187;DHT22;27858;51.414;0.018;2024-02-23T13:06:56;9.40;99.90
42187;DHT22;27858;51.414;0.018;2024-02-23T13:09:25;9.50;99.90
42187;DHT22;27858;51.414;0.018;2024-02-23T13:11:52;9.40;99.90
42187;DHT22;27858;51.414;0.018;2024-02-23T13:14:19;9.40;99.90
42187;DHT22;27858;51.414;0.018;2024-02-23T13:16:47;9.40;99.90
42187;DHT22;27858;51.414;0.018;2024-02-23T13:19:13;9.50;99.90
42187;DHT22;27858;51.414;0.018;2024-02-23T13:21:40;9.60;99.90
42187;DHT22;27858;51.414;0.018;2024-02-23T13:24:07;9.50;99.90
42187;DHT22;27858;51.414;0.018;2024-02-23T13:26:34;9.60;99.90
42187;DHT22;27858;51.414;0.018;2024-02-23T13:29:01;9.60;99.90
42187;DHT22;27858;51.414;0.018;2024-02-23T13:31:28;9.70;99.90
42187;DHT22;27858;51.414;0.018;2024-02-23T13:33:55;9.70;99.90
42187;DHT22;27858;51.414;0.018;2024-02-23T13:36:22;9.70;99.90
42187;DHT22;27858;51.414;0.018;2024-02-23T13:38:49;9.80;99.90
42187;DHT22;27858;51.414;0.018;2024-02-23T13:41:18;9.70;99.90
42187;DHT22;27858;51.414;0.018;2024-02-23T13:43:45;9.80;99.90
42187;DHT22;27858;51.414;0.018;2024-02-23T13:46:11;9.90;99.90
42187;DHT22;27858;51.414;0.018;2024-02-23T13:48:40;9.90;99.90
42187;DHT22;27858;51.414;0.018;2024-02-23T13:51:07;9.90;99.90
42187;DHT22;27858;51.414;0.018;2024-02-23T13:53:34;9.90;99.90
42187;DHT22;27858;51.414;0.018;2024-02-23T13:56:04;9.80;99.90
42187;DHT22;27858;51.414;0.018;2024-02-23T13:58:31;9.70;99.90
42187;DHT22;27858;51.414;0.018;2024-02-23T14:00:59;9.70;99.90
42187;DHT22;27858;51.414;0.018;2024-02-23T14:03:26;9.90;99.90
42187;DHT22;27858;51.414;0.018;2024-02-23T14:05:53;10.20;99.90
42187;DHT22;27858;51.414;0.018;2024-02-23T14:08:21;10.20;99.90
42187;DHT22;27858;51.414;0.018;2024-02-23T14:10:48;10.50;99.90
42187;DHT22;27858;51.414;0.018;2024-02-23T14:13:15;10.70;99.90
42187;DHT22;27858;51.414;0.018;2024-02-23T14:15:42;10.70;99.90
42187;DHT22;27858;51.414;0.018;2024-02-23T14:18:09;10.60;99.90
42187;DHT22;27858;51.414;0.018;2024-02-23T14:20:36;10.60;99.90
42187;DHT22;27858;51.414;0.018;2024-02-23T14:23:03;10.40;99.90
42187;DHT22;27858;51.414;0.018;2024-02-23T14:25:30;10.50;99.90
42187;DHT22;27858;51.414;0.018;2024-02-23T14:27:57;10.40;99.90
42187;DHT22;27858;51.414;0.018;2024-02-23T14:30:24;10.10;99.90
42187;DHT22;27858;51.414;0.018;2024-02-23T14:32:51;9.80;99.90
42187;DHT22;27858;51.414;0.018;2024-02-23T14:35:18;9.60;99.90
42187;DHT22;27858;51.414;0.018;2024-02-23T14:37:46;9.60;99.90
42187;DHT22;27858;51.414;0.018;2024-02-23T14:40:16;9.60;99.90
42187;DHT22;27858;51.414;0.018;2024-02-23T14:42:43;9.60;99.90
42187;DHT22;27858;51.414;0.018;2024-02-23T14:45:11;9.50;99.90
42187;DHT22;27858;51.414;0.018;2024-02-23T14:47:46;9.50;99.90
42187;DHT22;27858;51.414;0.018;2024-02-23T14:50:27;9.40;99.90
42187;DHT22;27858;51.414;0.018;2024-02-23T14:52:55;9.30;99.90
42187;DHT22;27858;51.414;0.018;2024-02-23T14:55:28;9.20;99.90
42187;DHT22;27858;51.414;0.018;2024-02-23T14:57:59;9.30;99.90
42187;DHT22;27858;51.414;0.018;2024-02-23T15:00:26;9.00;99.90
42187;DHT22;27858;51.414;0.018;2024-02-23T15:02:57;8.90;99.90
42187;DHT22;27858;51.414;0.018;2024-02-23T15:05:28;8.50;99.90
42187;DHT22;27858;51.414;0.018;2024-02-23T15:07:58;8.00;99.90
42187;DHT22;27858;51.414;0.018;2024-02-23T15:10:31;7.70;99.90
42187;DHT22;27858;51.414;0.018;2024-02-23T15:12:59;7.50;99.90
42187;DHT22;27858;51.414;0.018;2024-02-23T15:15:27;7.20;99.90
42187;DHT22;27858;51.414;0.018;2024-02-23T15:17:54;7.10;99.90
42187;DHT22;27858;51.414;0.018;2024-02-23T15:20:22;7.10;99.90
42187;DHT22;27858;51.414;0.018;2024-02-23T15:22:49;7.00;99.90
42187;DHT22;27858;51.414;0.018;2024-02-23T15:25:17;6.80;99.90
42187;DHT22;27858;51.414;0.018;2024-02-23T15:27:45;6.60;99.90
42187;DHT22;27858;51.414;0.018;2024-02-23T15:30:13;6.60;99.90
42187;DHT22;27858;51.414;0.018;2024-02-23T15:32:40;6.90;99.90
42187;DHT22;27858;51.414;0.018;2024-02-23T15:35:08;6.20;99.90
42187;DHT22;27858;51.414;0.018;2024-02-23T15:37:37;6.20;99.90
42187;DHT22;27858;51.414;0.018;2024-02-23T15:40:05;6.10;99.90
42187;DHT22;27858;51.414;0.018;2024-02-23T15:42:38;6.30;99.90
42187;DHT22;27858;51.414;0.018;2024-02-23T15:45:09;6.20;99.90
42187;DHT22;27858;51.414;0.018;2024-02-23T15:47:40;6.20;99.90
42187;DHT22;27858;51.414;0.018;2024-02-23T15:50:08;6.20;99.90
42187;DHT22;27858;51.414;0.018;2024-02-23T15:52:57;7.00;99.90